createdAt,value
2019-04-23T00:00:17.141Z,14.43
2019-04-23T00:05:30.206Z,14.13
2019-04-23T00:10:31.225Z,14.17
2019-04-23T00:16:03.007Z,13.60
2019-04-23T00:26:41.854Z,14.78
2019-04-23T00:31:49.903Z,14.70
2019-04-23T00:37:01.769Z,14.47
2019-04-23T00:42:17.693Z,14.00
2019-04-23T00:47:25.351Z,13.93
2019-04-23T00:52:33.524Z,13.20
2019-04-23T00:57:47.050Z,12.83
2019-04-23T01:02:58.982Z,12.50
2019-04-23T01:07:58.115Z,12.73
2019-04-23T01:13:08.665Z,13.67
2019-04-23T01:18:28.166Z,12.53
2019-04-23T01:23:14.239Z,12.20
2019-04-23T01:28:49.770Z,12.37
2019-04-23T01:33:56.639Z,12.13
2019-04-23T01:39:06.503Z,11.77
2019-04-23T01:44:14.226Z,12.33
2019-04-23T01:49:30.618Z,12.40
2019-04-23T01:54:31.069Z,11.73
2019-04-23T01:59:38.563Z,13.17
2019-04-23T02:04:58.024Z,13.13
2019-04-23T02:10:08.364Z,12.80
2019-04-23T02:15:15.143Z,13.27
2019-04-23T02:20:26.189Z,13.47
2019-04-23T02:25:39.657Z,16.60
2019-04-23T02:31:18.554Z,15.10
2019-04-23T02:51:21.652Z,14.70
2019-04-23T02:56:37.491Z,13.60
2019-04-23T03:01:31.246Z,12.80
2019-04-23T03:06:48.091Z,12.85
2019-04-23T03:22:15.694Z,12.03
2019-04-23T03:27:37.245Z,12.53
2019-04-23T03:32:50.794Z,11.60
2019-04-23T03:38:05.873Z,11.53
2019-04-23T03:43:06.593Z,11.40
2019-04-23T03:48:16.817Z,10.47
2019-04-23T03:53:25.838Z,10.80
2019-04-23T03:58:34.353Z,10.23
2019-04-23T04:04:03.812Z,9.80
2019-04-23T04:08:50.813Z,11.50
2019-04-23T04:14:04.777Z,10.23
2019-04-23T04:19:06.412Z,9.97
2019-04-23T04:24:27.523Z,10.60
2019-04-23T04:29:21.097Z,11.80
2019-04-23T04:39:42.857Z,10.43
2019-04-23T04:45:00.335Z,10.63
2019-04-23T04:49:55.670Z,9.97
2019-04-23T04:55:09.976Z,10.73
2019-04-23T05:10:39.283Z,9.27
2019-04-23T05:15:37.357Z,9.57
2019-04-23T05:20:53.476Z,9.43
2019-04-23T05:25:50.040Z,9.10
2019-04-23T05:31:12.239Z,8.07
2019-04-23T05:36:20.186Z,9.23
2019-04-23T05:41:23.471Z,8.40
2019-04-23T05:46:33.770Z,8.10
2019-04-23T05:51:44.531Z,7.97
2019-04-23T05:56:46.754Z,8.60
2019-04-23T06:07:15.164Z,8.17
2019-04-23T06:12:25.192Z,7.67
2019-04-23T06:17:21.262Z,7.73
2019-04-23T06:22:38.969Z,8.00
2019-04-23T06:27:43.135Z,8.98
2019-04-23T06:32:54.609Z,6.87
2019-04-23T06:38:32.982Z,9.20
2019-04-23T06:43:43.684Z,5.90
2019-04-23T06:48:47.714Z,7.20
2019-04-23T06:53:59.968Z,15.67
2019-04-23T06:59:05.918Z,54.80
2019-04-23T07:04:22.054Z,14.47
2019-04-23T07:09:15.241Z,7.63
2019-04-23T07:14:38.624Z,7.73
2019-04-23T07:19:44.992Z,13.33
2019-04-23T07:24:49.502Z,11.77
2019-04-23T07:30:03.564Z,10.43
2019-04-23T07:46:08.128Z,13.48
2019-04-23T07:50:59.001Z,12.20
2019-04-23T07:56:13.244Z,10.93
2019-04-23T08:01:17.924Z,8.93
2019-04-23T08:06:31.391Z,13.27
2019-04-23T08:11:39.873Z,9.87
2019-04-23T08:16:46.580Z,8.90
2019-04-23T08:22:07.106Z,6.87
2019-04-23T08:27:21.496Z,5.83
2019-04-23T08:53:34.240Z,5.63
2019-04-23T09:03:34.858Z,6.27
2019-04-23T09:08:43.740Z,6.30
2019-04-23T09:13:57.428Z,6.90
2019-04-23T09:19:11.118Z,7.13
2019-04-23T09:24:11.801Z,6.20
2019-04-23T09:29:28.311Z,6.57
2019-04-23T09:34:52.367Z,6.43
2019-04-23T09:40:27.645Z,6.87
2019-04-23T09:55:53.102Z,13.03
2019-04-23T10:01:27.287Z,10.67
2019-04-23T10:06:18.536Z,8.50
2019-04-23T10:11:19.924Z,10.37
2019-04-23T10:16:30.949Z,7.83
2019-04-23T10:21:37.457Z,9.27
2019-04-23T10:26:45.768Z,7.97
2019-04-23T10:31:53.581Z,7.47
2019-04-23T10:37:02.033Z,13.07
2019-04-23T10:42:10.090Z,7.57
2019-04-23T10:48:13.840Z,7.90
2019-04-23T10:58:24.687Z,6.73
2019-04-23T11:08:38.636Z,8.78
2019-04-23T11:13:53.194Z,7.03
2019-04-23T11:19:09.304Z,7.40
2019-04-23T11:24:21.006Z,8.37
2019-04-23T11:29:29.078Z,8.57
2019-04-23T11:34:53.423Z,8.60
2019-04-23T11:39:45.248Z,8.83
2019-04-23T11:44:52.177Z,8.03
2019-04-23T11:55:15.079Z,6.57
2019-04-23T12:00:14.565Z,8.23
2019-04-23T12:16:23.866Z,7.77
2019-04-23T12:21:28.432Z,7.67
2019-04-23T12:26:35.535Z,8.57
2019-04-23T12:32:15.592Z,16.50
2019-04-23T12:37:17.149Z,8.97
2019-04-23T12:42:43.634Z,12.43
2019-04-23T12:47:43.701Z,17.20
2019-04-23T12:52:40.738Z,19.52
2019-04-23T12:57:46.909Z,34.80
2019-04-23T13:08:08.333Z,12.20
2019-04-23T13:18:23.419Z,9.47
2019-04-23T13:28:40.524Z,15.13
2019-04-23T13:33:43.843Z,11.30
2019-04-23T13:38:57.015Z,9.67
2019-04-23T13:44:00.092Z,8.97
2019-04-23T13:49:18.120Z,9.40
2019-04-23T13:54:47.594Z,11.43
2019-04-23T14:05:00.137Z,10.57
2019-04-23T14:10:20.086Z,8.60
2019-04-23T14:15:34.413Z,12.23
2019-04-23T14:20:28.080Z,13.80
2019-04-23T14:25:40.111Z,11.30
2019-04-23T14:30:54.425Z,11.10
2019-04-23T14:35:56.335Z,10.77
2019-04-23T14:41:14.940Z,8.97
2019-04-23T14:46:34.378Z,10.10
2019-04-23T14:51:44.184Z,9.07
2019-04-23T14:56:38.955Z,9.97
2019-04-23T15:12:09.657Z,10.13
2019-04-23T15:17:15.876Z,14.87
2019-04-23T15:22:20.473Z,9.90
2019-04-23T15:28:03.504Z,11.47
2019-04-23T15:32:53.603Z,10.67
2019-04-23T15:43:02.489Z,12.07
2019-04-23T15:48:11.847Z,12.43
2019-04-23T15:53:05.927Z,13.20
2019-04-23T15:58:33.229Z,12.47
2019-04-23T16:03:04.655Z,13.70
2019-04-23T16:08:45.817Z,11.12
2019-04-23T16:14:07.633Z,11.45
2019-04-23T16:19:13.679Z,13.30
2019-04-23T16:29:54.053Z,11.03
2019-04-23T16:34:39.710Z,13.93
2019-04-23T16:40:03.390Z,14.83
2019-04-23T16:55:26.972Z,14.77
2019-04-23T17:00:33.463Z,23.70
2019-04-23T17:16:08.115Z,87.03
2019-04-23T17:21:13.352Z,203.43
2019-04-23T17:26:19.342Z,160.43
2019-04-23T17:36:38.525Z,43.43
2019-04-23T17:47:27.281Z,16.20
2019-04-23T17:52:35.006Z,48.60
2019-04-23T17:57:43.589Z,16.77
2019-04-23T18:08:03.279Z,41.43
2019-04-23T18:13:13.370Z,22.97
2019-04-23T18:18:19.658Z,16.00
2019-04-23T18:23:22.268Z,21.77
2019-04-23T18:28:37.275Z,17.93
2019-04-23T18:44:13.238Z,16.73
2019-04-23T18:49:28.268Z,19.93
2019-04-23T18:54:29.614Z,22.60
2019-04-23T19:05:08.646Z,86.50
2019-04-23T19:10:39.858Z,23.50
2019-04-23T19:15:42.585Z,19.90
2019-04-23T19:21:13.857Z,13.40
2019-04-23T19:26:09.588Z,15.40
2019-04-23T19:31:33.876Z,11.97
2019-04-23T19:36:52.571Z,11.80
2019-04-23T19:42:01.484Z,14.97
2019-04-23T19:47:01.707Z,13.53
2019-04-23T19:57:15.192Z,11.87
2019-04-23T20:02:37.191Z,14.57
2019-04-23T20:07:43.722Z,12.63
2019-04-23T20:12:40.036Z,16.33
2019-04-23T20:17:51.383Z,11.37
2019-04-23T20:28:31.129Z,12.53
2019-04-23T20:33:58.291Z,11.63
2019-04-23T20:38:48.592Z,12.20
2019-04-23T20:43:49.007Z,11.57
2019-04-23T20:48:53.051Z,12.03
2019-04-23T20:54:02.058Z,11.07
2019-04-23T20:59:11.849Z,11.67
2019-04-23T21:04:24.943Z,12.07
2019-04-23T21:19:59.796Z,10.37
2019-04-23T21:24:54.330Z,10.60
2019-04-23T21:30:06.173Z,11.20
2019-04-23T21:35:16.179Z,10.53
2019-04-23T21:41:06.186Z,10.70
2019-04-23T21:46:13.307Z,10.93
2019-04-23T21:51:26.512Z,10.97
2019-04-23T21:56:21.530Z,10.77
2019-04-23T22:06:43.296Z,10.70
2019-04-23T22:17:03.294Z,10.33
2019-04-23T22:22:02.590Z,11.47
2019-04-23T22:27:11.704Z,11.60
2019-04-23T22:32:31.136Z,11.23
2019-04-23T22:37:32.372Z,11.70
2019-04-23T22:43:01.176Z,11.00
2019-04-23T22:53:00.422Z,12.33
2019-04-23T22:58:11.453Z,13.23
2019-04-23T23:03:29.439Z,12.03
2019-04-23T23:13:53.441Z,12.37
2019-04-23T23:19:01.938Z,12.80
2019-04-23T23:23:59.420Z,12.70
2019-04-23T23:29:05.786Z,12.43
2019-04-23T23:34:15.609Z,12.97
2019-04-23T23:39:29.240Z,13.50
2019-04-23T23:44:47.918Z,13.17
2019-04-23T23:49:55.004Z,13.45
2019-04-23T23:55:01.036Z,13.93
